FBD727 LTAC-UGTB
Flight info
| Callsign | FBD727 |
|---|---|
| Flight time | N/A |
| Altitude | 35000 |
| Route | ILHAN1T ILHAN UW71 ERGUN DCT ERKOS UW71 TBN UR317 REBLO DCT TISOT TISOT1B |
| Aircraft | C25B/M-SDE2E3FGHRWXY/LB1 |
Departure
| Time | 2026-04-29 16:07 |
|---|---|
| Airport | Esenboğa International Airport (LTAC) |
Arrival
| Time | N/A |
|---|---|
| Airport | Tbilisi International Airport (UGTB) |
| Time | Latitude | Longitude | Altitude | Speed | Heading |
|---|---|---|---|---|---|
| 2026-04-29 15:46 | 40.11711 | 32.99561 | 3108 ft | 0 kts | 177° |
| 2026-04-29 15:59 | 40.11742 | 32.99561 | 3108 ft | 4 kts | 215° |
| 2026-04-29 15:59 | 40.11748 | 32.99618 | 3108 ft | 8 kts | 261° |
| 2026-04-29 15:59 | 40.11773 | 32.99678 | 3108 ft | 8 kts | 228° |
| 2026-04-29 15:59 | 40.11796 | 32.99708 | 3108 ft | 4 kts | 233° |
| 2026-04-29 16:00 | 40.11799 | 32.99715 | 3108 ft | 0 kts | 250° |
| 2026-04-29 16:01 | 40.11786 | 32.99626 | 3108 ft | 16 kts | 269° |
| 2026-04-29 16:01 | 40.11777 | 32.99465 | 3108 ft | 17 kts | 260° |
| 2026-04-29 16:01 | 40.11751 | 32.99318 | 3108 ft | 16 kts | 252° |
| 2026-04-29 16:01 | 40.11712 | 32.99191 | 3108 ft | 14 kts | 243° |
| 2026-04-29 16:02 | 40.11664 | 32.99080 | 3108 ft | 13 kts | 237° |
| 2026-04-29 16:02 | 40.11612 | 32.98987 | 3108 ft | 13 kts | 231° |
| 2026-04-29 16:02 | 40.11521 | 32.98870 | 3108 ft | 34 kts | 220° |
| 2026-04-29 16:02 | 40.11355 | 32.98707 | 3107 ft | 18 kts | 216° |
| 2026-04-29 16:03 | 40.11268 | 32.98619 | 3105 ft | 10 kts | 246° |
| 2026-04-29 16:03 | 40.11304 | 32.98525 | 3104 ft | 23 kts | 305° |
| 2026-04-29 16:03 | 40.11397 | 32.98358 | 3104 ft | 22 kts | 305° |
| 2026-04-29 16:03 | 40.11456 | 32.98253 | 3104 ft | 0 kts | 306° |
| 2026-04-29 16:05 | 40.11457 | 32.98252 | 3104 ft | 1 kts | 306° |
| 2026-04-29 16:05 | 40.11508 | 32.98175 | 3104 ft | 6 kts | 329° |
| 2026-04-29 16:05 | 40.11576 | 32.98171 | 3104 ft | 12 kts | 31° |
| 2026-04-29 16:05 | 40.11585 | 32.98180 | 3105 ft | 0 kts | 38° |
| 2026-04-29 16:06 | 40.11802 | 32.98389 | 3107 ft | 97 kts | 36° |
| 2026-04-29 16:06 | 40.12617 | 32.99167 | 3208 ft | 184 kts | 31° |
| 2026-04-29 16:06 | 40.13801 | 33.00245 | 3572 ft | 200 kts | 37° |
| 2026-04-29 16:07 | 40.14713 | 33.01292 | 4259 ft | 172 kts | 38° |
| 2026-04-29 16:07 | 40.15529 | 33.02190 | 4809 ft | 139 kts | 35° |
| 2026-04-29 16:07 | 40.16421 | 33.03095 | 3888 ft | 167 kts | 32° |
| 2026-04-29 16:07 | 40.17289 | 33.03970 | 3951 ft | 154 kts | 34° |
| 2026-04-29 16:08 | 40.18106 | 33.04840 | 3894 ft | 149 kts | 35° |
| 2026-04-29 16:08 | 40.18899 | 33.05680 | 3859 ft | 145 kts | 34° |
| 2026-04-29 16:08 | 40.19676 | 33.06488 | 3872 ft | 143 kts | 35° |
| 2026-04-29 16:08 | 40.20600 | 33.07447 | 4570 ft | 186 kts | 34° |
| 2026-04-29 16:09 | 40.21520 | 33.08775 | 5844 ft | 214 kts | 66° |
| 2026-04-29 16:09 | 40.21470 | 33.10760 | 7214 ft | 234 kts | 113° |
| 2026-04-29 16:09 | 40.20450 | 33.12446 | 8755 ft | 241 kts | 139° |
| 2026-04-29 16:09 | 40.19162 | 33.13874 | 10379 ft | 244 kts | 138° |
| 2026-04-29 16:10 | 40.17993 | 33.15514 | 11954 ft | 249 kts | 130° |
| 2026-04-29 16:10 | 40.16943 | 33.17327 | 13577 ft | 250 kts | 128° |
| 2026-04-29 16:10 | 40.15893 | 33.19140 | 15058 ft | 250 kts | 129° |
| 2026-04-29 16:10 | 40.14817 | 33.20919 | 16510 ft | 249 kts | 130° |
| 2026-04-29 16:11 | 40.13745 | 33.22688 | 17966 ft | 247 kts | 130° |
| 2026-04-29 16:11 | 40.12683 | 33.24438 | 19256 ft | 245 kts | 130° |
| 2026-04-29 16:11 | 40.11637 | 33.26179 | 20499 ft | 242 kts | 131° |
| 2026-04-29 16:11 | 40.10598 | 33.27892 | 21710 ft | 239 kts | 131° |
| 2026-04-29 16:12 | 40.09593 | 33.29559 | 22882 ft | 235 kts | 132° |
| 2026-04-29 16:12 | 40.08909 | 33.30683 | 23647 ft | 233 kts | 132° |
| 2026-04-29 16:12 | 40.07581 | 33.32884 | 24872 ft | 229 kts | 132° |
| 2026-04-29 16:12 | 40.06595 | 33.34508 | 25724 ft | 229 kts | 131° |
| 2026-04-29 16:13 | 40.05599 | 33.36156 | 26482 ft | 233 kts | 132° |
| 2026-04-29 16:13 | 40.04582 | 33.37822 | 27244 ft | 236 kts | 131° |
| 2026-04-29 16:13 | 40.03551 | 33.39523 | 27956 ft | 240 kts | 131° |
| 2026-04-29 16:13 | 40.02520 | 33.41223 | 28683 ft | 244 kts | 131° |
| 2026-04-29 16:14 | 40.01451 | 33.43007 | 29417 ft | 248 kts | 127° |
| 2026-04-29 16:14 | 40.00508 | 33.44878 | 30134 ft | 251 kts | 125° |
| 2026-04-29 16:14 | 39.99520 | 33.46770 | 30768 ft | 254 kts | 126° |
| 2026-04-29 16:14 | 39.98520 | 33.48688 | 31383 ft | 257 kts | 126° |
| 2026-04-29 16:15 | 39.97506 | 33.50626 | 32003 ft | 260 kts | 126° |
| 2026-04-29 16:15 | 39.96489 | 33.52596 | 32595 ft | 263 kts | 126° |
| 2026-04-29 16:15 | 39.95456 | 33.54577 | 33228 ft | 265 kts | 126° |
| 2026-04-29 16:15 | 39.94415 | 33.56585 | 33816 ft | 269 kts | 126° |
| 2026-04-29 16:16 | 39.93357 | 33.58606 | 34354 ft | 271 kts | 126° |
| 2026-04-29 16:16 | 39.92299 | 33.60647 | 34859 ft | 273 kts | 127° |
| 2026-04-29 16:16 | 39.91193 | 33.62754 | 35008 ft | 294 kts | 126° |
| 2026-04-29 16:16 | 39.89997 | 33.65046 | 35023 ft | 318 kts | 126° |
| 2026-04-29 16:17 | 39.88704 | 33.67520 | 35028 ft | 342 kts | 126° |
| 2026-04-29 16:17 | 39.87326 | 33.70165 | 35033 ft | 364 kts | 126° |
| 2026-04-29 16:17 | 39.85859 | 33.72971 | 35028 ft | 385 kts | 126° |
| 2026-04-29 16:17 | 39.84313 | 33.75922 | 35028 ft | 403 kts | 126° |
| 2026-04-29 16:18 | 39.82695 | 33.79006 | 35024 ft | 420 kts | 126° |
| 2026-04-29 16:18 | 39.81020 | 33.82205 | 35020 ft | 435 kts | 126° |
| 2026-04-29 16:18 | 39.79312 | 33.85461 | 35020 ft | 447 kts | 126° |
| 2026-04-29 16:19 | 39.76475 | 33.92691 | 35006 ft | 451 kts | 109° |
| 2026-04-29 16:19 | 39.74331 | 34.00328 | 35003 ft | 446 kts | 110° |
| 2026-04-29 16:20 | 39.72201 | 34.07821 | 34999 ft | 439 kts | 110° |
| 2026-04-29 16:20 | 39.70103 | 34.15208 | 35003 ft | 433 kts | 110° |
| 2026-04-29 16:21 | 39.67989 | 34.22620 | 35000 ft | 449 kts | 110° |
| 2026-04-29 16:21 | 39.66888 | 34.26470 | 35004 ft | 460 kts | 110° |
| 2026-04-29 16:21 | 39.65766 | 34.30395 | 35003 ft | 467 kts | 110° |
| 2026-04-29 16:22 | 39.63687 | 34.38257 | 34995 ft | 453 kts | 101° |
| 2026-04-29 16:22 | 39.63354 | 34.46265 | 34977 ft | 439 kts | 82° |
| 2026-04-29 16:23 | 39.64088 | 34.54162 | 34986 ft | 447 kts | 81° |
| 2026-04-29 16:23 | 39.64825 | 34.62297 | 34998 ft | 460 kts | 81° |
| 2026-04-29 16:24 | 39.65561 | 34.70423 | 35001 ft | 446 kts | 81° |
| 2026-04-29 16:24 | 39.66268 | 34.78307 | 34997 ft | 435 kts | 81° |
| 2026-04-29 16:25 | 39.66955 | 34.86035 | 34988 ft | 427 kts | 81° |